Time;durP1;ratioP1;P1;durP2;ratioP2;P2;SDS_P1;SDS_P2;PMS_P1;PMS_P2;Temp;Humidity;BMP_temperature;BMP_pressure;BME280_temperature;BME280_humidity;BME280_pressure;Samples;Min_cycle;Max_cycle;Signal;HPM_P1;HPM_P2
2023/03/10 01:55:19;;;;;;;76.47;37.90;;;;;;;10.63;100.00;99041.47;2223269;23;20062;-86
2023/03/10 02:34:17;;;;;;;69.25;40.53;;;;;;;10.29;100.00;98985.91;5034177;23;20035;-86
2023/03/10 03:22:14;;;;;;;84.10;46.43;;;;;;;9.82;100.00;98945.13;3835483;23;20413;-86
2023/03/10 03:25:49;;;;;;;82.13;45.10;;;;;;;9.77;100.00;98952.03;5077370;23;20397;-86
2023/03/10 03:29:03;;;;;;;83.72;45.55;;;;;;;9.94;100.00;98948.06;5003146;28;20134;-85
2023/03/10 03:31:40;;;;;;;86.07;46.78;;;;;;;9.74;100.00;98953.22;4934432;29;20032;-85
2023/03/10 03:35:02;;;;;;;86.22;45.47;;;;;;;9.77;100.00;98930.88;4906005;29;20216;-86
2023/03/10 03:38:00;;;;;;;85.60;45.28;;;;;;;9.90;100.00;98930.94;4940276;29;20044;-85
2023/03/10 04:07:52;;;;;;;89.93;47.85;;;;;;;9.85;100.00;98891.00;4330233;23;20050;-83
2023/03/10 04:10:58;;;;;;;75.53;44.20;;;;;;;9.91;100.00;98886.78;5016170;28;20046;-86
2023/03/10 04:13:55;;;;;;;74.30;35.20;;;;;;;10.01;100.00;98868.69;5001791;28;20057;-84
2023/03/10 04:22:56;;;;;;;78.35;44.72;;;;;;;9.95;100.00;98864.16;5003006;23;20114;-85
2023/03/10 04:30:07;;;;;;;76.47;44.67;;;;;;;9.79;100.00;98870.63;4986675;28;20486;-84
2023/03/10 05:01:02;;;;;;;87.05;46.40;;;;;;;9.71;100.00;98791.47;4722800;23;20117;-85
2023/03/10 05:16:13;;;;;;;89.53;47.25;;;;;;;9.50;100.00;98765.13;5283514;23;20022;-86
2023/03/10 05:19:17;;;;;;;74.30;45.28;;;;;;;9.53;100.00;98791.16;5006678;28;20109;-85
2023/03/10 05:22:22;;;;;;;79.32;44.00;;;;;;;9.55;100.00;98779.38;4989886;28;20046;-87
2023/03/10 05:25:40;;;;;;;82.93;45.33;;;;;;;9.39;100.00;98785.00;5021641;28;20053;-85
2023/03/10 05:29:19;;;;;;;86.63;45.13;;;;;;;9.51;100.00;98785.28;4963149;29;20054;-85
2023/03/10 05:38:37;;;;;;;81.15;44.88;;;;;;;9.46;100.00;98774.47;5129126;23;20058;-87
2023/03/10 05:41:59;;;;;;;74.80;45.20;;;;;;;9.47;100.00;98763.69;4901479;29;20646;-88
2023/03/10 05:45:28;;;;;;;86.85;44.20;;;;;;;9.59;100.00;98764.75;4862948;29;20057;-85
2023/03/10 05:48:39;;;;;;;82.13;45.92;;;;;;;9.59;100.00;98759.47;4830524;29;20542;-80
2023/03/10 05:51:20;;;;;;;80.13;44.92;;;;;;;9.65;100.00;98756.00;4859409;29;20065;-83
2023/03/10 05:56:50;;;;;;;85.72;46.70;;;;;;;9.56;100.00;98744.00;4997154;28;20037;-81
2023/03/10 06:02:59;;;;;;;79.63;44.60;;;;;;;9.55;100.00;98758.22;5052837;23;20054;-87
2023/03/10 06:05:55;;;;;;;92.93;49.20;;;;;;;9.47;100.00;98754.94;4989468;28;20038;-82
2023/03/10 06:09:30;;;;;;;87.72;46.63;;;;;;;9.67;100.00;98767.22;4976560;28;20061;-84
2023/03/10 06:12:39;;;;;;;81.82;47.03;;;;;;;9.82;100.00;98777.63;4954398;29;20026;-85
2023/03/10 06:24:06;;;;;;;51.30;25.25;;;;;;;11.89;100.00;98778.63;5036757;23;20031;-86
2023/03/10 06:27:31;;;;;;;48.95;20.23;;;;;;;12.63;100.00;98787.69;4979422;29;20032;-86
2023/03/10 06:30:35;;;;;;;39.00;18.27;;;;;;;11.54;100.00;98777.31;4918707;29;20110;-84
2023/03/10 06:36:59;;;;;;;24.10;12.70;;;;;;;10.31;100.00;98764.91;5037791;28;20030;-86
2023/03/10 06:40:06;;;;;;;25.88;13.05;;;;;;;10.43;100.00;98762.47;5012406;28;20048;-82
2023/03/10 07:16:08;;;;;;;56.15;20.90;;;;;;;14.01;100.00;98716.94;5207372;23;20100;-87
2023/03/10 07:18:34;;;;;;;35.78;19.13;;;;;;;14.28;100.00;98716.31;4995288;28;20034;-86
2023/03/10 07:21:00;;;;;;;38.25;17.20;;;;;;;14.50;100.00;98700.56;4977121;28;20030;-87
2023/03/10 07:23:25;;;;;;;43.67;18.65;;;;;;;15.44;100.00;98696.72;4994538;28;20478;-86
2023/03/10 07:25:53;;;;;;;40.97;17.42;;;;;;;16.01;100.00;98687.63;4977117;28;20192;-85
2023/03/10 07:28:19;;;;;;;39.25;17.90;;;;;;;15.93;100.00;98690.72;4991307;28;20034;-86
2023/03/10 07:30:45;;;;;;;36.13;16.00;;;;;;;16.24;100.00;98685.88;4974931;28;20516;-86
2023/03/10 07:33:10;;;;;;;38.65;18.23;;;;;;;16.13;100.00;98684.09;4975028;28;20030;-86
2023/03/10 07:35:36;;;;;;;40.47;17.52;;;;;;;17.70;100.00;98690.53;4957534;28;20398;-87
2023/03/10 07:38:02;;;;;;;40.55;17.77;;;;;;;17.45;100.00;98684.88;4957578;28;20030;-86
2023/03/10 07:40:28;;;;;;;47.47;18.17;;;;;;;16.85;100.00;98692.97;4957211;28;20038;-85
2023/03/10 07:42:54;;;;;;;34.40;17.00;;;;;;;18.01;100.00;98676.38;4974676;28;20046;-87
2023/03/10 07:45:24;;;;;;;43.40;18.55;;;;;;;17.58;100.00;98676.47;4957707;28;20039;-84
2023/03/10 07:47:51;;;;;;;41.80;17.33;;;;;;;18.12;100.00;98677.25;4974488;28;20039;-84
2023/03/10 07:50:17;;;;;;;39.05;18.30;;;;;;;18.57;100.00;98674.94;4974426;28;20042;-85
2023/03/10 07:52:43;;;;;;;39.45;16.60;;;;;;;19.91;100.00;98670.66;4974346;28;20398;-84
2023/03/10 07:55:09;;;;;;;36.67;16.20;;;;;;;20.65;100.00;98668.22;4974153;28;20030;-85
2023/03/10 07:57:34;;;;;;;39.00;17.05;;;;;;;19.35;100.00;98675.06;4957089;28;20042;-85
2023/03/10 08:00:00;;;;;;;35.13;16.70;;;;;;;19.05;100.00;98676.56;4974341;28;20035;-85
2023/03/10 08:02:25;;;;;;;42.63;18.17;;;;;;;19.63;100.00;98680.00;4974309;28;20571;-85
2023/03/10 08:04:51;;;;;;;38.63;17.75;;;;;;;19.30;100.00;98677.72;4977678;28;20030;-88
2023/03/10 08:07:17;;;;;;;33.92;18.38;;;;;;;18.52;100.00;98671.44;4976217;28;20485;-87
2023/03/10 08:09:50;;;;;;;36.20;16.58;;;;;;;18.18;100.00;98668.19;4976547;28;20034;-86
2023/03/10 08:12:20;;;;;;;35.80;18.00;;;;;;;19.08;100.00;98676.03;4994030;28;20042;-85
2023/03/10 08:14:46;;;;;;;34.75;17.65;;;;;;;19.72;100.00;98680.31;4992730;28;20042;-85
2023/03/10 08:17:12;;;;;;;31.80;17.08;;;;;;;20.13;100.00;98663.13;4993401;28;20613;-84
2023/03/10 08:19:38;;;;;;;36.70;18.83;;;;;;;19.64;100.00;98672.75;4993708;28;20056;-86
2023/03/10 08:22:05;;;;;;;40.65;19.75;;;;;;;19.36;99.66;98677.47;4976081;28;20481;-85
2023/03/10 08:24:30;;;;;;;35.58;18.48;;;;;;;19.45;99.75;98670.56;4993778;28;20048;-87
2023/03/10 08:26:56;;;;;;;37.50;19.83;;;;;;;19.74;98.74;98673.59;5001642;28;20038;-85
2023/03/10 08:29:22;;;;;;;37.00;20.42;;;;;;;19.72;100.00;98675.72;4979715;28;20054;-87
2023/03/10 08:31:47;;;;;;;38.33;21.27;;;;;;;21.17;92.28;98689.38;4976296;28;20046;-85
2023/03/10 08:34:15;;;;;;;38.70;20.30;;;;;;;19.58;98.03;98675.44;4993465;28;20034;-85
2023/03/10 08:36:40;;;;;;;36.25;20.25;;;;;;;19.45;100.00;98672.44;4993167;28;20054;-85
2023/03/10 08:39:07;;;;;;;39.72;21.15;;;;;;;18.85;100.00;98684.50;4994449;28;20139;-85
2023/03/10 08:41:35;;;;;;;39.58;22.17;;;;;;;17.95;100.00;98674.72;4994308;28;20026;-85
2023/03/10 08:44:01;;;;;;;42.25;22.65;;;;;;;17.81;100.00;98680.72;4993585;28;20041;-85
2023/03/10 08:46:29;;;;;;;43.97;24.70;;;;;;;17.89;100.00;98685.63;4993497;28;20038;-84
2023/03/10 08:48:55;;;;;;;55.63;25.73;;;;;;;18.91;100.00;98686.16;4993190;28;20109;-85
2023/03/10 08:51:21;;;;;;;43.88;26.45;;;;;;;17.69;100.00;98685.44;4993100;28;20037;-84
2023/03/10 08:53:48;;;;;;;55.58;28.85;;;;;;;17.32;100.00;98687.94;4993794;28;20030;-85
2023/03/10 08:56:16;;;;;;;47.80;29.25;;;;;;;17.70;100.00;98701.25;4993280;28;20049;-85
2023/03/10 08:58:41;;;;;;;58.83;29.95;;;;;;;17.65;100.00;98698.53;4975727;28;21127;-86
2023/03/10 09:01:07;;;;;;;64.00;30.90;;;;;;;18.08;100.00;98686.88;4993077;28;20033;-84
2023/03/10 09:03:37;;;;;;;57.28;29.05;;;;;;;18.29;100.00;98683.31;4993534;28;20440;-85
2023/03/10 09:06:03;;;;;;;49.72;29.38;;;;;;;18.03;100.00;98679.59;4993701;28;20049;-86
2023/03/10 09:08:28;;;;;;;51.47;28.45;;;;;;;18.53;100.00;98694.50;4993662;28;20030;-85
2023/03/10 09:10:55;;;;;;;51.17;28.05;;;;;;;18.26;100.00;98688.38;4993317;28;20113;-84
2023/03/10 09:13:21;;;;;;;46.97;30.00;;;;;;;18.07;100.00;98683.38;4976137;28;20043;-84
2023/03/10 09:15:47;;;;;;;51.20;30.52;;;;;;;17.73;100.00;98684.66;4976118;28;20101;-85
2023/03/10 09:18:14;;;;;;;49.67;29.52;;;;;;;17.09;100.00;98683.66;4993038;28;20052;-84
2023/03/10 09:20:41;;;;;;;47.90;30.05;;;;;;;18.30;100.00;98684.09;4993491;28;20045;-84
2023/03/10 09:23:08;;;;;;;50.97;29.50;;;;;;;19.02;90.86;98693.16;4993528;28;20065;-86
2023/03/10 09:25:33;;;;;;;54.53;29.98;;;;;;;19.54;89.94;98695.03;4995584;28;20486;-87
2023/03/10 09:27:59;;;;;;;55.33;30.30;;;;;;;19.27;90.92;98691.69;4996974;28;20070;-85
2023/03/10 09:30:24;;;;;;;52.78;31.02;;;;;;;18.84;94.22;98685.56;4997646;28;20042;-87
2023/03/10 09:32:51;;;;;;;50.90;32.58;;;;;;;18.54;98.18;98694.25;4997621;28;20077;-85
2023/03/10 09:35:17;;;;;;;56.70;32.20;;;;;;;19.26;92.85;98692.75;4980133;28;20034;-83
2023/03/10 09:37:42;;;;;;;50.97;29.90;;;;;;;20.22;87.85;98684.94;4979839;28;20122;-83
2023/03/10 09:40:14;;;;;;;52.30;32.33;;;;;;;20.02;84.14;98686.50;4997644;28;20073;-86
2023/03/10 09:42:44;;;;;;;49.15;30.85;;;;;;;20.00;86.77;98690.56;4997776;28;20087;-83
2023/03/10 09:45:21;;;;;;;46.08;29.60;;;;;;;20.63;79.30;98692.72;5000164;28;20050;-84
2023/03/10 09:48:21;;;;;;;51.78;30.77;;;;;;;20.82;77.21;98711.78;4982455;28;20373;-85
2023/03/10 09:50:51;;;;;;;49.65;31.35;;;;;;;19.62;86.31;98697.19;4998544;28;20406;-86
2023/03/10 09:53:49;;;;;;;55.25;33.63;;;;;;;18.61;93.44;98701.25;4999008;28;20544;-85
2023/03/10 09:56:19;;;;;;;55.55;34.65;;;;;;;18.65;93.45;98692.44;4998935;28;20056;-85
2023/03/10 09:58:48;;;;;;;52.45;34.78;;;;;;;19.14;90.72;98700.22;4998921;28;20039;-85
2023/03/10 10:01:27;;;;;;;59.70;35.08;;;;;;;20.39;81.01;98712.38;4998939;28;20034;-85
2023/03/10 10:04:04;;;;;;;68.60;36.38;;;;;;;19.77;81.46;98712.56;5000179;28;20034;-84
2023/03/10 10:06:33;;;;;;;63.45;34.78;;;;;;;19.67;80.99;98710.66;5001754;28;20042;-84
2023/03/10 10:09:16;;;;;;;56.65;35.28;;;;;;;20.53;75.91;98718.84;4983954;28;20096;-85
2023/03/10 10:11:41;;;;;;;61.40;33.97;;;;;;;21.32;73.62;98715.44;5001473;28;20097;-85
2023/03/10 10:14:07;;;;;;;59.72;34.38;;;;;;;21.80;67.01;98720.09;5008167;28;20026;-86
2023/03/10 10:16:42;;;;;;;66.80;35.33;;;;;;;21.67;68.98;98723.41;5014854;28;20035;-82
2023/03/10 10:19:16;;;;;;;60.65;33.72;;;;;;;22.29;65.03;98711.13;5015811;28;20041;-84
2023/03/10 10:21:50;;;;;;;56.58;34.17;;;;;;;22.43;66.65;98710.22;4998002;28;20121;-84
2023/03/10 10:24:16;;;;;;;59.00;33.78;;;;;;;22.56;63.76;98720.38;5018506;28;20027;-84
2023/03/10 10:26:42;;;;;;;61.30;33.67;;;;;;;22.42;64.20;98724.00;5002914;28;20021;-86
2023/03/10 10:29:18;;;;;;;58.20;33.25;;;;;;;23.03;62.08;98725.06;5019788;28;20042;-84
2023/03/10 10:32:08;;;;;;;53.67;32.40;;;;;;;23.29;61.55;98716.66;4985404;28;20034;-85
2023/03/10 10:34:35;;;;;;;58.70;30.98;;;;;;;23.10;60.33;98725.50;5019358;28;20042;-84
2023/03/10 10:37:01;;;;;;;51.33;30.50;;;;;;;23.45;59.06;98715.41;5018536;28;20038;-84
2023/03/10 10:39:30;;;;;;;48.80;28.90;;;;;;;23.62;59.72;98721.16;5020010;28;20023;-85
2023/03/10 10:42:22;;;;;;;49.65;29.00;;;;;;;24.11;55.88;98718.00;5019191;28;20050;-86
2023/03/10 10:44:50;;;;;;;;;;;;;;;23.43;57.80;98717.59;5020372;28;20027;-83
2023/03/10 10:47:28;;;;;;;47.85;25.75;;;;;;;23.66;56.51;98716.75;5019732;28;19981;-83
2023/03/10 10:49:54;;;;;;;44.08;24.05;;;;;;;23.83;55.19;98724.38;5019922;28;20022;-84
2023/03/10 10:52:25;;;;;;;38.03;22.83;;;;;;;25.06;51.68;98717.50;5002281;28;20038;-83
2023/03/10 10:54:57;;;;;;;38.70;23.58;;;;;;;24.28;51.67;98706.66;5018471;28;20041;-83
2023/03/10 10:57:32;;;;;;;42.50;25.27;;;;;;;23.85;55.42;98701.34;5015453;28;20093;-83
2023/03/10 11:00:23;;;;;;;37.28;21.27;;;;;;;23.49;55.48;98698.31;4997535;28;20030;-85
2023/03/10 11:02:50;;;;;;;48.85;22.45;;;;;;;24.41;52.59;98695.88;4981438;28;20062;-86
2023/03/10 11:05:18;;;;;;;45.28;22.20;;;;;;;24.77;52.20;98696.06;4998123;28;20389;-88
2023/03/10 11:07:49;;;;;;;40.60;19.48;;;;;;;25.63;48.52;98710.69;4996531;28;20030;-85
2023/03/10 11:10:22;;;;;;;41.58;20.42;;;;;;;25.41;49.01;98703.25;4996445;28;20188;-86
2023/03/10 11:12:58;;;;;;;38.10;18.63;;;;;;;25.78;48.23;98702.22;4978621;28;20054;-86
2023/03/10 11:15:34;;;;;;;39.90;19.92;;;;;;;25.12;48.63;98706.25;4995728;28;20038;-85
2023/03/10 11:18:13;;;;;;;34.45;17.65;;;;;;;26.35;45.65;98703.31;4995622;28;20031;-84
2023/03/10 11:20:51;;;;;;;29.80;15.95;;;;;;;26.23;46.10;98707.72;4992083;28;20104;-85
2023/03/10 11:23:19;;;;;;;31.63;15.70;;;;;;;24.76;48.60;98701.81;4995265;28;20036;-86
2023/03/10 11:25:51;;;;;;;30.02;16.55;;;;;;;24.43;51.06;98695.56;4995057;28;20158;-88
2023/03/10 11:28:52;;;;;;;31.20;16.58;;;;;;;24.98;50.27;98694.63;4994903;28;20093;-83
2023/03/10 11:31:43;;;;;;;34.97;13.60;;;;;;;25.27;48.00;98701.66;4994545;28;20070;-83
2023/03/10 11:34:19;;;;;;;28.38;13.80;;;;;;;25.68;46.32;98697.00;4994740;28;20062;-84
2023/03/10 11:37:23;;;;;;;32.17;15.55;;;;;;;25.28;46.60;98697.84;4995485;28;20073;-85
2023/03/10 11:40:07;;;;;;;27.83;13.07;;;;;;;25.70;44.86;98695.59;4995355;28;20409;-86
2023/03/10 11:42:35;;;;;;;31.58;14.63;;;;;;;24.60;49.03;98687.69;4994770;28;20136;-84
2023/03/10 11:45:16;;;;;;;31.55;14.73;;;;;;;22.66;55.47;98681.69;4996320;28;20050;-85
2023/03/10 11:48:03;;;;;;;33.40;15.38;;;;;;;23.85;52.54;98687.00;4996538;28;20105;-83
2023/03/10 11:50:51;;;;;;;31.48;14.60;;;;;;;25.00;50.03;98686.97;4994402;28;20045;-85
2023/03/10 11:53:36;;;;;;;34.22;15.35;;;;;;;25.87;46.58;98688.72;4998277;28;20460;-85
2023/03/10 11:56:03;;;;;;;31.83;13.32;;;;;;;26.29;43.96;98687.47;4994459;28;20051;-86
2023/03/10 11:58:43;;;;;;;24.98;13.07;;;;;;;26.13;43.81;98676.16;4995472;28;20034;-84
2023/03/10 12:01:14;;;;;;;24.63;13.60;;;;;;;26.14;43.23;98673.13;4994324;28;20057;-84
2023/03/10 12:04:04;;;;;;;27.42;13.57;;;;;;;24.64;48.23;98667.03;4994480;28;20033;-86
2023/03/10 12:07:00;;;;;;;25.55;13.90;;;;;;;24.97;48.25;98652.34;4993771;28;20035;-85
2023/03/10 12:09:25;;;;;;;33.85;12.27;;;;;;;26.30;43.96;98664.63;4975277;28;20060;-83
2023/03/10 12:11:53;;;;;;;27.65;12.68;;;;;;;26.74;42.88;98656.41;4995194;28;20369;-87
2023/03/10 12:14:19;;;;;;;27.80;13.38;;;;;;;27.10;40.92;98654.34;5002878;28;20034;-88
2023/03/10 12:16:54;;;;;;;23.98;12.57;;;;;;;25.22;46.39;98655.66;4983459;28;20525;-88
2023/03/10 12:19:20;;;;;;;23.50;13.02;;;;;;;22.85;54.27;98657.44;4995253;28;20125;-86
2023/03/10 12:22:32;;;;;;;27.10;13.52;;;;;;;21.57;61.06;98643.38;4997300;28;20044;-86
2023/03/10 12:24:58;;;;;;;34.92;13.73;;;;;;;20.75;65.72;98635.88;4977456;28;20038;-85
2023/03/10 12:27:23;;;;;;;40.33;15.05;;;;;;;20.52;65.71;98626.53;4995016;28;20038;-85
2023/03/10 12:29:49;;;;;;;33.22;13.15;;;;;;;20.32;69.07;98618.47;4994734;28;20038;-91
2023/03/10 12:32:46;;;;;;;24.80;12.77;;;;;;;19.35;70.31;98611.41;4979362;28;20513;-87
2023/03/10 12:35:49;;;;;;;26.42;11.40;;;;;;;19.18;71.84;98610.81;4996609;28;20505;-86
2023/03/10 12:38:26;;;;;;;30.90;12.25;;;;;;;19.12;73.01;98616.44;4999193;28;20117;-87
2023/03/10 12:40:53;;;;;;;24.98;11.88;;;;;;;18.87;75.07;98615.25;4978369;28;20084;-88
2023/03/10 12:43:37;;;;;;;22.15;12.13;;;;;;;18.39;78.76;98624.38;4976803;28;20090;-87
2023/03/10 12:46:06;;;;;;;22.38;11.52;;;;;;;18.72;78.52;98617.88;4994152;28;20478;-86
2023/03/10 12:48:38;;;;;;;24.40;11.07;;;;;;;18.84;77.83;98626.53;4994979;28;20117;-85
2023/03/10 12:51:12;;;;;;;32.75;11.80;;;;;;;18.79;77.31;98623.78;4976660;28;20088;-86
2023/03/10 12:53:53;;;;;;;24.90;10.35;;;;;;;18.64;78.84;98626.41;4993664;28;20062;-88
2023/03/10 12:56:20;;;;;;;28.27;11.23;;;;;;;18.52;80.58;98623.13;4993955;28;20133;-85
2023/03/10 12:58:57;;;;;;;26.48;11.65;;;;;;;18.45;81.21;98617.97;4993545;28;20089;-88
2023/03/10 13:01:30;;;;;;;26.45;11.00;;;;;;;18.62;80.37;98625.88;4980274;28;20451;-89
2023/03/10 13:03:56;;;;;;;25.02;11.07;;;;;;;18.87;79.92;98622.50;4980409;28;20191;-87
2023/03/10 13:06:32;;;;;;;27.70;11.40;;;;;;;18.71;81.92;98628.88;5000003;28;20034;-86
2023/03/10 17:31:27;;;;;;;22.20;5.65;;;;;;;16.83;71.36;98615.63;5916288;23;21169;-85
2023/03/10 17:40:17;;;;;;;14.48;5.30;;;;;;;16.39;74.58;98616.59;5366889;23;20035;-85
2023/03/10 17:43:30;;;;;;;19.48;6.97;;;;;;;16.09;76.74;98613.47;5122111;23;20056;-84
2023/03/10 17:46:51;;;;;;;29.17;8.35;;;;;;;16.13;76.71;98606.59;4836994;29;20153;-83
2023/03/10 17:49:50;;;;;;;30.02;7.63;;;;;;;16.15;77.40;98613.28;5061130;23;20018;-86
2023/03/10 17:52:20;;;;;;;27.00;8.40;;;;;;;16.07;77.32;98615.59;4978028;28;20051;-84
2023/03/10 17:55:48;;;;;;;28.23;9.60;;;;;;;15.88;78.25;98634.50;5357992;23;20145;-82
2023/03/10 17:59:20;;;;;;;33.58;8.80;;;;;;;15.73;79.32;98641.47;4967653;23;20050;-84
2023/03/10 18:11:03;;;;;;;27.60;7.03;;;;;;;16.05;77.89;98661.25;4823806;23;15101231;-86
2023/03/10 18:13:30;;;;;;;21.13;8.45;;;;;;;15.88;79.08;98658.56;4987656;28;20297;-85
2023/03/10 18:16:23;;;;;;;15.63;7.35;;;;;;;16.03;78.04;98663.34;5182878;23;20109;-88
2023/03/10 18:21:18;;;;;;;19.25;7.88;;;;;;;16.00;78.35;98659.31;5146375;23;20062;-84
2023/03/10 19:01:31;;;;;;;11.73;4.45;;;;;;;15.35;56.98;98687.44;5896773;23;20053;-91
2023/03/10 19:03:57;;;;;;;18.42;3.20;;;;;;;15.20;49.70;98695.97;4962371;28;20038;-91
2023/03/10 19:06:37;;;;;;;11.38;2.63;;;;;;;15.14;43.56;98706.78;4966377;28;20062;-93
2023/03/10 19:09:07;;;;;;;4.22;1.70;;;;;;;15.21;40.58;98718.94;4950967;29;20122;-93
2023/03/10 19:11:39;;;;;;;5.95;1.48;;;;;;;15.29;37.29;98731.91;4946265;29;20035;-92
2023/03/10 19:14:07;;;;;;;9.45;1.35;;;;;;;15.38;35.28;98735.84;4968919;29;20039;-93
2023/03/10 19:16:34;;;;;;;4.53;1.20;;;;;;;15.43;33.86;98738.63;4937224;29;20066;-91
2023/03/10 19:19:42;;;;;;;5.20;1.05;;;;;;;15.53;32.57;98746.06;4973614;29;20060;-91
2023/03/10 19:22:12;;;;;;;3.72;1.30;;;;;;;15.62;32.59;98739.28;4956512;29;20086;-93
2023/03/10 19:25:00;;;;;;;9.45;1.27;;;;;;;15.88;31.25;98736.03;4955276;29;20049;-92
2023/03/10 19:27:25;;;;;;;5.72;1.27;;;;;;;15.82;30.61;98753.03;4953437;29;20035;-92
2023/03/10 19:30:03;;;;;;;12.93;1.45;;;;;;;15.91;30.16;98761.44;4940968;29;20033;-91
2023/03/10 19:32:38;;;;;;;6.07;1.50;;;;;;;15.89;29.94;98763.56;4955322;29;20110;-93
2023/03/10 19:35:12;;;;;;;7.38;0.98;;;;;;;15.86;30.01;98764.84;4957322;29;20046;-92
2023/03/10 19:37:42;;;;;;;10.35;1.17;;;;;;;15.82;30.46;98752.19;4961824;28;20058;-92
2023/03/10 19:40:18;;;;;;;2.53;1.00;;;;;;;15.80;30.65;98754.31;4964585;29;20042;-92
2023/03/10 19:45:56;;;;;;;3.33;1.20;;;;;;;15.76;30.66;98761.19;5292717;23;20065;-91
2023/03/10 19:48:43;;;;;;;3.08;1.27;;;;;;;15.71;30.70;98761.88;4983691;28;20050;-92
2023/03/10 19:51:23;;;;;;;6.05;1.38;;;;;;;15.70;31.22;98787.00;5004661;23;20497;-90
2023/03/10 19:53:52;;;;;;;6.45;1.13;;;;;;;15.67;31.01;98779.44;5004713;28;20046;-93
2023/03/10 19:56:50;;;;;;;4.22;1.10;;;;;;;15.64;31.07;98774.59;4974033;28;20023;-90
2023/03/10 19:59:24;;;;;;;9.50;1.20;;;;;;;15.62;31.17;98784.69;5038292;23;20049;-88
2023/03/10 20:01:53;;;;;;;2.50;1.08;;;;;;;15.64;31.34;98793.28;5004855;28;20022;-87
2023/03/10 20:04:19;;;;;;;5.00;1.25;;;;;;;15.57;31.69;98795.28;4990517;28;20034;-88
2023/03/10 20:06:45;;;;;;;4.80;1.20;;;;;;;15.54;31.76;98787.72;4999388;28;20041;-92
2023/03/10 20:09:11;;;;;;;3.15;1.00;;;;;;;15.51;31.67;98782.88;5000008;28;20030;-90
2023/03/10 20:11:38;;;;;;;5.32;1.00;;;;;;;15.58;31.28;98778.19;4968587;28;20046;-89
2023/03/10 20:14:04;;;;;;;5.50;1.17;;;;;;;15.60;31.01;98767.28;4998471;28;20026;-92
2023/03/10 20:16:31;;;;;;;6.00;1.13;;;;;;;15.67;31.20;98786.66;4984686;28;20042;-90
2023/03/10 20:18:58;;;;;;;4.30;1.08;;;;;;;15.67;31.11;98779.44;5001409;28;20034;-89
2023/03/10 20:21:24;;;;;;;6.55;1.52;;;;;;;15.70;31.11;98786.16;4966209;28;20097;-90
2023/03/10 20:23:51;;;;;;;3.92;1.00;;;;;;;15.72;31.01;98779.53;5000204;28;20038;-89
2023/03/10 20:26:19;;;;;;;2.28;1.20;;;;;;;15.72;30.87;98768.84;4964244;28;20031;-89
2023/03/10 20:28:47;;;;;;;6.15;1.35;;;;;;;15.71;30.93;98783.25;4996529;28;20034;-89
2023/03/10 20:31:19;;;;;;;7.90;1.60;;;;;;;15.75;31.09;98765.69;4998585;28;20030;-87
2023/03/10 20:33:46;;;;;;;12.40;1.40;;;;;;;15.81;31.18;98780.78;4980741;28;20038;-88
2023/03/10 20:36:15;;;;;;;8.93;1.10;;;;;;;15.77;31.45;98776.97;5001160;28;20270;-89
2023/03/10 20:38:45;;;;;;;5.65;1.17;;;;;;;15.68;31.49;98780.22;5003425;28;20117;-89
2023/03/10 20:41:16;;;;;;;6.65;0.90;;;;;;;15.65;31.69;98786.88;4998857;28;20057;-89
2023/03/10 20:43:42;;;;;;;4.45;1.10;;;;;;;15.60;32.12;98785.97;4998530;28;20062;-89
2023/03/10 20:46:09;;;;;;;8.80;0.93;;;;;;;15.67;31.69;98792.81;4980420;28;20135;-90
2023/03/10 20:48:36;;;;;;;4.43;1.38;;;;;;;15.70;31.51;98792.31;4978425;28;20141;-86
2023/03/10 20:51:02;;;;;;;2.60;1.27;;;;;;;15.74;31.67;98790.78;4936337;28;20074;-88
2023/03/10 20:53:32;;;;;;;6.93;1.42;;;;;;;15.73;31.57;98791.84;4997536;28;20359;-87
2023/03/10 20:56:00;;;;;;;5.55;0.95;;;;;;;15.78;31.53;98789.25;4995859;28;20030;-86
2023/03/10 20:58:26;;;;;;;4.78;1.08;;;;;;;15.74;31.63;98785.44;4994654;28;20061;-87
2023/03/10 21:00:51;;;;;;;5.78;0.93;;;;;;;15.75;31.81;98789.75;4998876;28;20489;-89
2023/03/10 21:03:25;;;;;;;3.13;0.82;;;;;;;15.72;31.81;98784.88;4999510;28;20027;-87
2023/03/10 21:05:52;;;;;;;5.25;0.90;;;;;;;15.79;31.84;98796.25;4996956;28;20042;-89
2023/03/10 21:08:18;;;;;;;3.10;1.20;;;;;;;15.69;32.11;98796.03;4995867;28;20084;-91
2023/03/10 21:10:44;;;;;;;3.75;1.25;;;;;;;15.65;32.18;98802.91;4995468;28;20062;-88
2023/03/10 21:13:10;;;;;;;3.90;1.70;;;;;;;15.58;32.35;98814.78;4994776;28;20592;-88
2023/03/10 21:15:38;;;;;;;2.00;0.95;;;;;;;15.47;32.80;98821.72;4994791;28;20105;-86
2023/03/10 21:18:04;;;;;;;2.97;0.85;;;;;;;15.61;32.53;98815.09;4997513;28;20038;-86
2023/03/10 21:20:30;;;;;;;3.60;0.80;;;;;;;15.54;32.61;98801.09;4986175;28;20027;-85
2023/03/10 21:22:56;;;;;;;4.32;1.35;;;;;;;15.66;32.30;98806.38;5010386;28;20038;-85
2023/03/10 21:28:10;;;;;;;5.28;0.88;;;;;;;15.64;32.38;98809.31;4894903;26;20063;-89
2023/03/10 21:30:36;;;;;;;4.20;0.98;;;;;;;15.61;32.27;98799.06;4934562;29;20040;-87
2023/03/10 21:33:01;;;;;;;3.97;0.90;;;;;;;15.60;32.15;98802.00;4933969;29;20135;-88
2023/03/10 21:35:30;;;;;;;2.97;0.95;;;;;;;15.43;32.52;98804.53;4951249;29;20044;-87
2023/03/10 21:37:58;;;;;;;3.17;1.00;;;;;;;15.47;32.69;98792.34;4946407;29;20040;-88
2023/03/10 21:40:23;;;;;;;4.05;0.90;;;;;;;15.40;32.68;98800.50;4941206;29;20392;-85
2023/03/10 21:42:49;;;;;;;5.93;1.08;;;;;;;15.28;33.04;98789.00;4941585;29;20039;-89
2023/03/10 21:45:19;;;;;;;3.85;1.38;;;;;;;15.22;32.88;98792.63;4941251;29;20083;-89
2023/03/10 21:47:45;;;;;;;2.25;0.70;;;;;;;15.20;32.74;98799.25;4940317;29;20123;-86
2023/03/10 21:50:12;;;;;;;2.20;0.80;;;;;;;15.26;33.03;98801.78;4923596;29;20047;-88
2023/03/10 21:52:38;;;;;;;3.28;1.10;;;;;;;15.36;32.67;98791.31;4941595;29;20059;-88
2023/03/10 21:55:04;;;;;;;6.28;0.70;;;;;;;15.26;32.87;98784.97;4940399;29;20031;-85
2023/03/10 21:57:30;;;;;;;1.88;0.60;;;;;;;15.40;32.82;98791.66;4941005;29;20104;-86
2023/03/10 21:59:55;;;;;;;2.92;0.98;;;;;;;15.27;33.00;98791.94;4923584;29;20036;-84
2023/03/10 22:02:25;;;;;;;11.60;1.52;;;;;;;15.30;33.25;98783.44;4942284;29;20107;-84
2023/03/10 22:04:51;;;;;;;4.88;0.95;;;;;;;15.28;33.06;98785.56;4907592;29;20036;-89
2023/03/10 22:07:16;;;;;;;1.95;0.82;;;;;;;15.28;33.32;98777.53;4940429;29;20016;-89
2023/03/10 22:09:42;;;;;;;2.63;0.90;;;;;;;15.22;33.19;98779.28;4941783;29;20039;-88
2023/03/10 22:12:08;;;;;;;1.88;0.90;;;;;;;15.28;33.34;98782.88;4941488;29;20043;-89
2023/03/10 22:14:34;;;;;;;3.20;0.90;;;;;;;15.36;33.35;98795.84;4941586;29;20039;-86
2023/03/10 22:16:59;;;;;;;1.00;0.65;;;;;;;15.16;33.89;98798.06;4940141;29;20032;-88
2023/03/10 22:19:24;;;;;;;1.48;0.50;;;;;;;14.96;34.15;98801.91;4945135;29;20044;-87
2023/03/10 22:21:50;;;;;;;2.55;0.70;;;;;;;14.92;34.25;98789.25;4942524;29;20091;-90
2023/03/10 22:24:16;;;;;;;1.33;0.60;;;;;;;14.93;34.48;98790.91;4942633;29;20087;-89
2023/03/10 22:26:41;;;;;;;3.10;0.63;;;;;;;14.92;34.70;98805.28;4908467;29;20048;-86
2023/03/10 22:29:07;;;;;;;2.92;1.20;;;;;;;14.92;34.72;98811.41;4940677;29;20123;-86
2023/03/10 22:31:33;;;;;;;1.88;0.68;;;;;;;14.85;34.62;98793.91;4943952;29;20039;-86
2023/03/10 22:33:58;;;;;;;4.35;0.60;;;;;;;14.86;34.74;98790.19;4942963;29;20055;-85
2023/03/10 22:36:24;;;;;;;1.35;0.50;;;;;;;14.81;34.35;98788.25;4944448;29;20063;-86
2023/03/10 22:38:49;;;;;;;5.45;0.80;;;;;;;14.79;34.52;98779.63;4947304;29;20543;-87
2023/03/10 22:41:15;;;;;;;1.73;0.80;;;;;;;14.87;34.42;98789.16;4940387;29;20035;-90
2023/03/10 22:43:41;;;;;;;0.75;0.50;;;;;;;14.86;34.11;98780.34;4924653;29;20122;-88
2023/03/10 22:46:14;;;;;;;1.73;0.50;;;;;;;14.86;34.15;98767.00;4941392;29;20502;-86
2023/03/10 22:48:40;;;;;;;1.33;0.63;;;;;;;14.87;34.13;98752.63;4940635;29;20028;-84
2023/03/10 22:51:08;;;;;;;2.10;0.63;;;;;;;14.91;34.24;98745.78;4941335;29;20043;-91
2023/03/10 22:53:36;;;;;;;1.70;0.65;;;;;;;15.08;34.00;98755.75;4924349;29;20028;-87
2023/03/10 22:56:02;;;;;;;0.55;0.50;;;;;;;15.13;33.59;98771.88;4942494;29;20108;-87